createdAt,value
2018-07-23T00:02:12.209Z,70.17
2018-07-23T00:04:43.056Z,71.93
2018-07-23T00:07:13.467Z,73.13
2018-07-23T00:09:43.554Z,71.90
2018-07-23T00:12:13.796Z,72.03
2018-07-23T00:14:43.908Z,71.20
2018-07-23T00:17:13.914Z,70.30
2018-07-23T00:19:44.173Z,71.10
2018-07-23T00:22:14.542Z,73.57
2018-07-23T00:24:44.938Z,72.57
2018-07-23T00:27:15.709Z,73.13
2018-07-23T00:29:46.565Z,73.10
2018-07-23T00:32:17.359Z,69.63
2018-07-23T00:34:48.397Z,70.70
2018-07-23T00:37:18.575Z,72.77
2018-07-23T00:39:48.888Z,72.70
2018-07-23T00:42:20.465Z,73.50
2018-07-23T00:44:51.909Z,71.27
2018-07-23T00:47:22.047Z,71.43
2018-07-23T00:49:52.495Z,74.73
2018-07-23T00:52:22.753Z,74.20
2018-07-23T00:54:53.123Z,71.13
2018-07-23T00:57:23.936Z,71.47
2018-07-23T00:59:54.634Z,68.47
2018-07-23T01:02:25.474Z,71.20
2018-07-23T01:04:56.042Z,71.93
2018-07-23T01:07:27.099Z,72.17
2018-07-23T01:09:57.939Z,68.80
2018-07-23T01:12:32.381Z,69.37
2018-07-23T01:15:02.788Z,69.23
2018-07-23T01:17:33.220Z,69.17
2018-07-23T01:20:03.567Z,72.30
2018-07-23T01:22:34.810Z,70.57
2018-07-23T01:25:05.187Z,70.80
2018-07-23T01:27:35.379Z,69.83
2018-07-23T01:30:06.406Z,68.67
2018-07-23T01:32:36.436Z,71.77
2018-07-23T01:35:06.895Z,68.50
2018-07-23T01:37:37.008Z,70.60
2018-07-23T01:40:07.166Z,71.63
2018-07-23T01:42:38.554Z,69.13
2018-07-23T01:45:15.744Z,70.47
2018-07-23T01:47:46.167Z,68.37
2018-07-23T01:50:16.422Z,67.70
2018-07-23T01:52:46.628Z,69.03
2018-07-23T01:55:16.779Z,69.33
2018-07-23T01:57:47.111Z,69.77
2018-07-23T02:00:17.598Z,70.70
2018-07-23T02:02:47.725Z,68.07
2018-07-23T02:05:18.267Z,69.07
2018-07-23T02:07:48.644Z,69.10
2018-07-23T02:10:18.813Z,69.60
2018-07-23T02:12:49.460Z,70.90
2018-07-23T02:15:19.435Z,69.00
2018-07-23T02:17:49.398Z,68.40
2018-07-23T02:20:20.147Z,69.60
2018-07-23T02:22:50.133Z,69.63
2018-07-23T02:25:20.514Z,71.33
2018-07-23T02:27:50.700Z,71.97
2018-07-23T02:30:21.162Z,71.67
2018-07-23T02:32:51.423Z,67.37
2018-07-23T02:35:21.957Z,69.10
2018-07-23T02:37:52.712Z,71.37
2018-07-23T02:40:23.546Z,71.93
2018-07-23T02:42:54.125Z,69.90
2018-07-23T02:45:25.148Z,67.90
2018-07-23T02:47:55.192Z,68.03
2018-07-23T02:50:25.733Z,68.17
2018-07-23T02:52:56.125Z,67.17
2018-07-23T02:55:29.563Z,71.33
2018-07-23T02:58:00.548Z,66.93
2018-07-23T03:00:30.918Z,78.70
2018-07-23T03:03:01.121Z,67.90
2018-07-23T03:05:31.489Z,67.50
2018-07-23T03:08:02.308Z,69.67
2018-07-23T03:10:34.759Z,70.03
2018-07-23T03:13:05.326Z,67.63
2018-07-23T03:15:35.965Z,71.27
2018-07-23T03:18:07.044Z,66.37
2018-07-23T03:20:37.219Z,67.47
2018-07-23T03:23:07.601Z,69.37
2018-07-23T03:25:38.368Z,67.30
2018-07-23T03:28:09.184Z,66.10
2018-07-23T03:30:40.109Z,68.33
2018-07-23T03:33:10.415Z,67.20
2018-07-23T03:35:41.389Z,70.53
2018-07-23T03:38:11.947Z,68.50
2018-07-23T03:40:42.875Z,68.50
2018-07-23T03:43:12.906Z,67.37
2018-07-23T03:45:43.294Z,67.83
2018-07-23T03:48:13.461Z,68.53
2018-07-23T03:50:44.801Z,68.33
2018-07-23T03:53:15.049Z,69.33
2018-07-23T03:55:45.975Z,66.53
2018-07-23T03:58:16.060Z,66.57
2018-07-23T04:00:46.361Z,65.30
2018-07-23T04:03:17.580Z,68.70
2018-07-23T04:05:48.582Z,67.17
2018-07-23T04:08:18.998Z,66.47
2018-07-23T04:10:49.501Z,66.87
2018-07-23T04:13:19.997Z,66.90
2018-07-23T04:15:50.274Z,69.47
2018-07-23T04:18:20.440Z,68.20
2018-07-23T04:20:50.524Z,66.47
2018-07-23T04:23:21.173Z,68.10
2018-07-23T04:25:51.325Z,66.43
2018-07-23T04:28:22.054Z,66.73
2018-07-23T04:30:52.710Z,69.67
2018-07-23T04:33:23.260Z,67.67
2018-07-23T04:35:53.999Z,68.33
2018-07-23T04:38:24.370Z,65.77
2018-07-23T04:40:54.639Z,68.03
2018-07-23T04:43:25.485Z,70.10
2018-07-23T04:45:55.631Z,68.87
2018-07-23T04:48:26.748Z,68.67
2018-07-23T04:50:57.487Z,67.57
2018-07-23T04:53:27.701Z,67.37
2018-07-23T04:55:57.671Z,69.67
2018-07-23T04:58:29.082Z,69.97
2018-07-23T05:00:59.474Z,68.50
2018-07-23T05:03:29.527Z,68.83
2018-07-23T05:06:00.388Z,67.03
2018-07-23T05:08:30.664Z,70.33
2018-07-23T05:11:01.222Z,70.23
2018-07-23T05:13:31.575Z,69.13
2018-07-23T05:16:02.295Z,68.30
2018-07-23T05:18:32.940Z,69.50
2018-07-23T05:21:03.380Z,68.47
2018-07-23T05:23:34.653Z,70.00
2018-07-23T05:26:04.665Z,73.63
2018-07-23T05:28:35.229Z,68.60
2018-07-23T05:31:05.941Z,68.37
2018-07-23T05:33:36.297Z,70.47
2018-07-23T05:36:06.638Z,71.63
2018-07-23T05:38:36.674Z,69.67
2018-07-23T05:41:08.278Z,72.47
2018-07-23T05:43:38.888Z,70.43
2018-07-23T05:46:09.601Z,70.87
2018-07-23T05:48:39.742Z,73.43
2018-07-23T05:51:10.268Z,70.90
2018-07-23T05:53:41.554Z,68.57
2018-07-23T05:56:12.251Z,70.63
2018-07-23T05:58:43.340Z,71.27
2018-07-23T06:01:14.106Z,72.40
2018-07-23T06:03:44.287Z,71.73
2018-07-23T06:06:14.444Z,70.73
2018-07-23T06:08:45.207Z,68.97
2018-07-23T06:11:15.698Z,72.20
2018-07-23T06:13:46.542Z,70.13
2018-07-23T06:16:17.330Z,69.83
2018-07-23T06:18:48.175Z,69.80
2018-07-23T06:21:18.501Z,74.20
2018-07-23T06:23:49.157Z,73.50
2018-07-23T06:26:19.124Z,70.83
2018-07-23T06:28:50.064Z,71.93
2018-07-23T06:31:22.229Z,73.60
2018-07-23T06:33:52.449Z,71.60
2018-07-23T06:36:23.530Z,73.93
2018-07-23T06:38:53.759Z,71.30
2018-07-23T06:41:24.161Z,71.20
2018-07-23T06:43:55.768Z,73.37
2018-07-23T06:46:26.161Z,74.50
2018-07-23T06:48:56.480Z,74.27
2018-07-23T06:51:26.698Z,71.53
2018-07-23T06:53:56.808Z,72.57
2018-07-23T06:56:27.779Z,71.17
2018-07-23T06:58:58.689Z,76.37
2018-07-23T07:01:28.713Z,80.90
2018-07-23T07:03:59.819Z,71.17
2018-07-23T07:06:29.886Z,74.33
2018-07-23T07:09:01.509Z,72.73
2018-07-23T07:11:31.484Z,74.60
2018-07-23T07:14:01.671Z,74.33
2018-07-23T07:16:33.187Z,72.30
2018-07-23T07:19:04.434Z,74.33
2018-07-23T07:21:34.556Z,75.27
2018-07-23T07:24:05.982Z,72.80
2018-07-23T07:26:37.125Z,72.77
2018-07-23T07:29:07.262Z,71.33
2018-07-23T07:31:37.502Z,76.40
2018-07-23T07:34:07.839Z,75.60
2018-07-23T07:36:38.258Z,72.70
2018-07-23T07:39:11.838Z,74.37
2018-07-23T07:41:43.013Z,73.67
2018-07-23T07:44:13.099Z,76.07
2018-07-23T07:46:44.514Z,76.90
2018-07-23T07:49:14.696Z,74.87
2018-07-23T07:51:44.943Z,80.10
2018-07-23T07:54:15.160Z,75.33
2018-07-23T07:56:45.317Z,75.80
2018-07-23T07:59:15.526Z,73.83
2018-07-23T08:01:46.643Z,73.57
2018-07-23T08:04:18.181Z,76.90
2018-07-23T08:06:48.336Z,78.73
2018-07-23T08:09:19.086Z,80.13
2018-07-23T08:11:50.929Z,79.00
2018-07-23T08:14:21.405Z,75.53
2018-07-23T08:16:51.638Z,75.03
2018-07-23T08:19:22.041Z,78.60
2018-07-23T08:21:52.699Z,75.57
2018-07-23T08:24:22.777Z,76.90
2018-07-23T08:26:52.981Z,75.70
2018-07-23T08:29:23.324Z,74.47
2018-07-23T08:31:53.595Z,77.03
2018-07-23T08:34:25.810Z,75.93
2018-07-23T08:36:56.575Z,77.07
2018-07-23T08:39:27.155Z,78.63
2018-07-23T08:41:57.708Z,74.43
2018-07-23T08:44:28.502Z,76.97
2018-07-23T08:46:58.629Z,79.63
2018-07-23T08:49:28.851Z,78.17
2018-07-23T08:51:59.727Z,76.30
2018-07-23T08:54:30.586Z,73.17
2018-07-23T08:57:01.473Z,75.60
2018-07-23T08:59:31.621Z,77.23
2018-07-23T09:02:02.693Z,80.17
2018-07-23T09:04:32.646Z,83.67
2018-07-23T09:07:02.876Z,81.67
2018-07-23T09:09:33.625Z,78.77
2018-07-23T09:12:04.147Z,78.77
2018-07-23T09:14:34.363Z,79.50
2018-07-23T09:17:04.540Z,81.63
2018-07-23T09:19:35.357Z,80.17
2018-07-23T09:22:05.911Z,76.57
2018-07-23T09:24:36.915Z,77.30
2018-07-23T09:27:07.475Z,79.57
2018-07-23T09:29:37.885Z,76.00
2018-07-23T09:32:09.021Z,79.13
2018-07-23T09:34:39.444Z,79.30
2018-07-23T09:37:09.710Z,77.27
2018-07-23T09:39:39.992Z,78.73
2018-07-23T09:42:11.587Z,78.73
2018-07-23T09:44:41.946Z,76.60
2018-07-23T09:47:12.330Z,79.40
2018-07-23T09:49:42.561Z,77.00
2018-07-23T09:52:13.314Z,76.80
2018-07-23T09:54:43.673Z,76.83
2018-07-23T09:57:13.798Z,76.83
2018-07-23T09:59:43.969Z,75.30
2018-07-23T10:02:14.024Z,78.07
2018-07-23T10:04:44.249Z,77.20
2018-07-23T10:07:14.619Z,75.60
2018-07-23T10:09:45.269Z,81.60
2018-07-23T10:12:15.439Z,76.57
2018-07-23T10:14:45.587Z,79.50
2018-07-23T10:17:17.094Z,80.83
2018-07-23T10:19:47.542Z,77.10
2018-07-23T10:22:17.588Z,83.57
2018-07-23T10:24:47.729Z,76.53
2018-07-23T10:27:17.777Z,77.00
2018-07-23T10:29:48.464Z,77.20
2018-07-23T10:32:19.748Z,76.23
2018-07-23T10:34:49.843Z,74.80
2018-07-23T10:37:21.084Z,73.47
2018-07-23T10:39:51.742Z,76.97
2018-07-23T10:42:22.301Z,75.03
2018-07-23T10:44:53.156Z,76.43
2018-07-23T10:47:24.644Z,75.10
2018-07-23T10:49:55.205Z,75.47
2018-07-23T10:52:25.703Z,76.80
2018-07-23T10:54:56.397Z,75.90
2018-07-23T10:57:30.231Z,77.00
2018-07-23T11:00:00.792Z,74.97
2018-07-23T11:02:30.978Z,76.20
2018-07-23T11:05:01.313Z,75.03
2018-07-23T11:07:31.662Z,75.53
2018-07-23T11:10:02.091Z,78.83
2018-07-23T11:12:32.856Z,76.73
2018-07-23T11:15:03.189Z,76.07
2018-07-23T11:17:33.156Z,74.97
2018-07-23T11:20:03.583Z,74.80
2018-07-23T11:22:33.755Z,75.60
2018-07-23T11:25:38.323Z,77.33
2018-07-23T11:27:34.053Z,77.57
2018-07-23T11:30:05.080Z,74.93
2018-07-23T11:32:35.816Z,75.00
2018-07-23T11:35:06.525Z,74.90
2018-07-23T11:37:36.622Z,76.37
2018-07-23T11:40:06.702Z,78.43
2018-07-23T11:42:37.441Z,73.57
2018-07-23T11:45:08.049Z,74.83
2018-07-23T11:47:38.409Z,78.53
2018-07-23T11:50:08.602Z,76.27
2018-07-23T11:52:40.111Z,77.03
2018-07-23T11:55:10.684Z,78.70
2018-07-23T11:57:41.443Z,76.60
2018-07-23T12:00:12.997Z,78.30
2018-07-23T12:02:43.281Z,75.30
2018-07-23T12:05:14.729Z,74.20
2018-07-23T12:07:44.649Z,78.93
2018-07-23T12:10:14.626Z,75.67
2018-07-23T12:12:44.899Z,75.30
2018-07-23T12:15:15.081Z,77.13
2018-07-23T12:17:46.307Z,78.27
2018-07-23T12:20:16.397Z,79.17
2018-07-23T12:22:46.704Z,79.33
2018-07-23T12:25:16.967Z,76.87
2018-07-23T12:27:47.357Z,81.20
2018-07-23T12:30:17.389Z,79.13
2018-07-23T12:32:47.487Z,80.13
2018-07-23T12:35:17.766Z,81.33
2018-07-23T12:37:48.350Z,77.97
2018-07-23T12:40:18.517Z,77.93
2018-07-23T12:42:48.533Z,78.77
2018-07-23T12:45:19.372Z,80.23
2018-07-23T12:47:49.458Z,82.53
2018-07-23T12:50:19.822Z,80.27
2018-07-23T12:52:51.107Z,84.90
2018-07-23T12:55:21.694Z,78.27
2018-07-23T12:57:51.960Z,76.37
2018-07-23T13:00:22.159Z,81.10
2018-07-23T13:02:52.310Z,78.10
2018-07-23T13:05:26.006Z,80.93
2018-07-23T13:07:56.344Z,78.73
2018-07-23T13:10:27.160Z,80.63
2018-07-23T13:12:57.287Z,80.43
2018-07-23T13:15:28.171Z,85.70
2018-07-23T13:17:58.456Z,81.33
2018-07-23T13:20:29.199Z,80.00
2018-07-23T13:22:59.909Z,79.20
2018-07-23T13:25:30.309Z,84.63
2018-07-23T13:28:00.744Z,82.10
2018-07-23T13:30:31.032Z,81.67
2018-07-23T13:33:01.228Z,81.30
2018-07-23T13:35:31.769Z,80.03
2018-07-23T13:38:02.245Z,84.30
2018-07-23T13:40:32.388Z,80.63
2018-07-23T13:43:02.444Z,82.93
2018-07-23T13:45:32.886Z,83.77
2018-07-23T13:48:03.119Z,79.60
2018-07-23T13:50:33.419Z,81.13
2018-07-23T13:53:03.692Z,82.80
2018-07-23T13:55:33.924Z,82.17
2018-07-23T13:58:04.253Z,84.60
2018-07-23T14:00:34.920Z,83.43
2018-07-23T14:03:05.712Z,86.23
2018-07-23T14:05:36.727Z,81.47
2018-07-23T14:08:07.142Z,82.60
2018-07-23T14:10:37.506Z,83.33
2018-07-23T14:13:08.399Z,79.82
2018-07-23T14:15:39.103Z,78.72
2018-07-23T14:18:09.696Z,82.57
2018-07-23T14:20:40.059Z,84.20
2018-07-23T14:23:10.271Z,80.70
2018-07-23T14:25:47.274Z,82.82
2018-07-23T14:28:20.505Z,80.40
2018-07-23T14:30:53.039Z,81.35
2018-07-23T14:33:25.891Z,83.60
2018-07-23T14:35:58.450Z,81.22
2018-07-23T14:38:30.598Z,84.95
2018-07-23T14:41:01.740Z,83.22
2018-07-23T14:43:33.945Z,81.08
2018-07-23T14:46:07.443Z,83.78
2018-07-23T14:48:39.879Z,82.35
2018-07-23T14:51:12.062Z,82.10
2018-07-23T14:53:45.800Z,80.90
2018-07-23T14:56:18.417Z,80.90
2018-07-23T14:58:50.822Z,82.27
2018-07-23T15:01:22.788Z,106.40
2018-07-23T15:03:57.652Z,81.35
2018-07-23T15:06:29.007Z,86.00
2018-07-23T15:09:00.380Z,80.72
2018-07-23T15:11:33.873Z,82.15
2018-07-23T15:14:06.128Z,82.72
2018-07-23T15:16:38.242Z,84.83
2018-07-23T15:19:10.687Z,82.42
2018-07-23T15:21:45.305Z,81.95
2018-07-23T15:24:17.817Z,88.75
2018-07-23T15:26:48.067Z,81.35
2018-07-23T15:29:18.125Z,87.00
2018-07-23T15:31:49.309Z,84.35
2018-07-23T15:34:20.453Z,90.65
2018-07-23T15:36:52.687Z,81.22
2018-07-23T15:39:25.417Z,83.22
2018-07-23T15:41:57.572Z,81.78
2018-07-23T15:44:28.051Z,81.65
2018-07-23T15:47:00.224Z,81.78
2018-07-23T15:49:33.183Z,89.47
2018-07-23T15:52:04.958Z,83.35
2018-07-23T15:54:35.234Z,81.97
2018-07-23T15:57:07.579Z,82.42
2018-07-23T15:59:39.657Z,78.87
2018-07-23T16:02:12.252Z,84.05
2018-07-23T16:04:44.585Z,84.75
2018-07-23T16:07:16.920Z,84.10
2018-07-23T16:09:50.440Z,81.42
2018-07-23T16:12:22.483Z,81.63
2018-07-23T16:14:55.213Z,81.45
2018-07-23T16:17:28.195Z,84.00
2018-07-23T16:20:01.475Z,82.22
2018-07-23T16:22:33.715Z,81.57
2018-07-23T16:25:07.683Z,81.53
2018-07-23T16:27:40.365Z,84.25
2018-07-23T16:30:12.847Z,81.25
2018-07-23T16:32:45.584Z,82.17
2018-07-23T16:35:16.576Z,81.02
2018-07-23T16:37:49.177Z,84.52
2018-07-23T16:40:21.862Z,82.82
2018-07-23T16:42:54.245Z,81.37
2018-07-23T16:45:26.054Z,81.97
2018-07-23T16:47:56.496Z,84.58
2018-07-23T16:50:28.277Z,82.85
2018-07-23T16:52:58.457Z,87.25
2018-07-23T16:55:28.739Z,79.97
2018-07-23T16:57:58.952Z,88.15
2018-07-23T17:00:29.001Z,85.97
2018-07-23T17:02:59.351Z,83.97
2018-07-23T17:05:30.013Z,85.55
2018-07-23T17:08:00.114Z,84.65
2018-07-23T17:10:31.318Z,82.02
2018-07-23T17:13:02.334Z,84.25
2018-07-23T17:15:32.554Z,85.22
2018-07-23T17:18:03.793Z,83.45
2018-07-23T17:20:34.180Z,83.10
2018-07-23T17:23:04.584Z,84.97
2018-07-23T17:25:35.013Z,82.12
2018-07-23T17:28:05.336Z,81.40
2018-07-23T17:30:35.702Z,83.87
2018-07-23T17:33:06.125Z,88.78
2018-07-23T17:35:36.130Z,84.10
2018-07-23T17:38:06.359Z,82.67
2018-07-23T17:40:36.411Z,83.67
2018-07-23T17:43:06.908Z,84.15
2018-07-23T17:45:38.079Z,91.75
2018-07-23T17:48:08.319Z,87.57
2018-07-23T17:50:38.445Z,86.05
2018-07-23T17:53:08.773Z,83.78
2018-07-23T17:55:38.900Z,81.50
2018-07-23T17:58:09.408Z,82.50
2018-07-23T18:00:39.986Z,82.65
2018-07-23T18:03:11.192Z,86.17
2018-07-23T18:05:41.574Z,85.00
2018-07-23T18:08:12.160Z,83.52
2018-07-23T18:10:42.927Z,84.13
2018-07-23T18:13:12.983Z,83.23
2018-07-23T18:15:43.196Z,82.97
2018-07-23T18:18:13.397Z,83.82
2018-07-23T18:20:43.635Z,86.60
2018-07-23T18:23:13.812Z,82.63
2018-07-23T18:25:44.520Z,82.90
2018-07-23T18:28:15.966Z,83.67
2018-07-23T18:30:46.180Z,82.97
2018-07-23T18:33:16.122Z,85.90
2018-07-23T18:35:46.219Z,89.67
2018-07-23T18:38:16.780Z,81.00
2018-07-23T18:40:46.933Z,85.83
2018-07-23T18:43:17.313Z,84.23
2018-07-23T18:45:47.341Z,84.20
2018-07-23T18:49:35.281Z,82.00
2018-07-23T18:52:06.071Z,83.53
2018-07-23T18:54:36.924Z,85.27
2018-07-23T18:57:07.924Z,87.90
2018-07-23T18:59:37.980Z,85.57
2018-07-23T19:02:09.536Z,83.40
2018-07-23T19:04:39.770Z,82.97
2018-07-23T19:07:10.683Z,82.03
2018-07-23T19:09:41.240Z,83.50
2018-07-23T19:12:12.464Z,82.60
2018-07-23T19:14:42.769Z,84.53
2018-07-23T19:17:14.303Z,87.07
2018-07-23T19:19:47.205Z,85.13
2018-07-23T19:22:18.013Z,82.00
2018-07-23T19:24:48.180Z,84.50
2018-07-23T19:27:18.551Z,83.63
2018-07-23T19:29:48.813Z,82.10
2018-07-23T19:32:18.940Z,83.67
2018-07-23T19:34:49.390Z,80.73
2018-07-23T19:37:20.748Z,84.53
2018-07-23T19:39:51.013Z,83.17
2018-07-23T19:42:21.301Z,84.30
2018-07-23T19:44:51.870Z,84.63
2018-07-23T19:47:22.685Z,82.27
2018-07-23T19:49:54.532Z,81.67
2018-07-23T19:52:24.720Z,85.67
2018-07-23T19:54:55.600Z,83.57
2018-07-23T19:57:25.780Z,79.93
2018-07-23T19:59:56.635Z,80.20
2018-07-23T20:02:27.363Z,84.23
2018-07-23T20:04:57.903Z,84.27
2018-07-23T20:07:28.326Z,82.80
2018-07-23T20:09:59.604Z,84.20
2018-07-23T20:12:29.828Z,82.00
2018-07-23T20:14:59.917Z,83.20
2018-07-23T20:17:30.700Z,79.53
2018-07-23T20:20:01.671Z,83.23
2018-07-23T20:22:31.832Z,80.67
2018-07-23T20:25:02.126Z,80.03
2018-07-23T20:27:33.182Z,81.13
2018-07-23T20:30:03.494Z,82.70
2018-07-23T20:32:34.505Z,81.40
2018-07-23T20:35:04.773Z,79.13
2018-07-23T20:37:36.249Z,82.03
2018-07-23T20:40:07.061Z,79.53
2018-07-23T20:42:37.614Z,77.93
2018-07-23T20:45:08.889Z,83.67
2018-07-23T20:47:40.145Z,84.30
2018-07-23T20:50:10.246Z,77.70
2018-07-23T20:52:40.450Z,80.50
2018-07-23T20:55:10.995Z,76.67
2018-07-23T20:57:42.213Z,78.50
2018-07-23T21:00:13.302Z,77.87
2018-07-23T21:02:43.620Z,79.40
2018-07-23T21:05:13.672Z,74.80
2018-07-23T21:07:44.116Z,74.93
2018-07-23T21:10:14.692Z,75.17
2018-07-23T21:12:44.855Z,75.77
2018-07-23T21:15:15.402Z,77.90
2018-07-23T21:17:46.599Z,72.83
2018-07-23T21:20:16.846Z,72.80
2018-07-23T21:22:47.076Z,71.53
2018-07-23T21:25:17.623Z,70.43
2018-07-23T21:27:47.876Z,73.43
2018-07-23T21:30:18.576Z,72.70
2018-07-23T21:32:49.193Z,70.30
2018-07-23T21:35:19.344Z,72.37
2018-07-23T21:37:51.137Z,72.37
2018-07-23T21:40:21.775Z,73.50
2018-07-23T21:42:52.227Z,73.53
2018-07-23T21:45:22.759Z,70.60
2018-07-23T21:47:53.451Z,70.80
2018-07-23T21:50:23.595Z,70.33
2018-07-23T21:52:54.534Z,69.33
2018-07-23T21:55:24.948Z,72.73
2018-07-23T21:57:55.403Z,70.47
2018-07-23T22:00:25.754Z,72.10
2018-07-23T22:02:56.340Z,72.80
2018-07-23T22:05:26.491Z,71.03
2018-07-23T22:07:56.643Z,72.23
2018-07-23T22:10:27.094Z,77.00
2018-07-23T22:12:58.388Z,72.50
2018-07-23T22:15:28.525Z,73.53
2018-07-23T22:17:59.068Z,72.30
2018-07-23T22:20:29.424Z,72.60
2018-07-23T22:23:00.672Z,70.97
2018-07-23T22:25:31.282Z,71.37
2018-07-23T22:28:01.446Z,70.23
2018-07-23T22:30:31.642Z,68.30
2018-07-23T22:33:02.074Z,68.30
2018-07-23T22:35:32.333Z,68.37
2018-07-23T22:38:02.419Z,71.63
2018-07-23T22:40:32.941Z,68.87
2018-07-23T22:43:03.062Z,69.33
2018-07-23T22:45:33.361Z,67.70
2018-07-23T22:48:03.677Z,68.90
2018-07-23T22:50:33.783Z,68.43
2018-07-23T22:53:05.357Z,72.43
2018-07-23T22:55:36.097Z,69.67
2018-07-23T22:58:07.313Z,68.37
2018-07-23T23:00:38.880Z,140.43
2018-07-23T23:03:10.398Z,69.80
2018-07-23T23:05:40.800Z,69.57
2018-07-23T23:08:11.026Z,70.03
2018-07-23T23:10:40.984Z,67.27
2018-07-23T23:13:11.646Z,69.13
2018-07-23T23:15:42.334Z,68.53
2018-07-23T23:18:12.999Z,69.83
2018-07-23T23:20:43.525Z,69.27
2018-07-23T23:23:13.966Z,66.87
2018-07-23T23:25:44.609Z,67.87
2018-07-23T23:28:14.833Z,70.23
2018-07-23T23:30:45.399Z,66.67
2018-07-23T23:33:15.547Z,70.57
2018-07-23T23:35:45.849Z,68.30
2018-07-23T23:38:16.197Z,67.10
2018-07-23T23:40:46.573Z,66.17
2018-07-23T23:43:16.676Z,67.97
2018-07-23T23:45:47.118Z,69.63
2018-07-23T23:48:17.395Z,71.03
2018-07-23T23:50:48.236Z,66.20
2018-07-23T23:53:18.905Z,68.77
2018-07-23T23:55:49.570Z,65.70
2018-07-23T23:58:19.640Z,67.90
